sensor_id;sensor_type;location;lat;lon;timestamp;P1;durP1;ratioP1;P2;durP2;ratioP2
21798;SDS011;24973;47.178;15.316;2023-11-19T00:00:08;10.07;;;3.77;;
21798;SDS011;24973;47.178;15.316;2023-11-19T00:02:59;7.27;;;2.83;;
21798;SDS011;24973;47.178;15.316;2023-11-19T00:05:48;14.27;;;5.17;;
21798;SDS011;24973;47.178;15.316;2023-11-19T00:08:37;6.90;;;2.70;;
21798;SDS011;24973;47.178;15.316;2023-11-19T00:11:27;6.03;;;2.50;;
21798;SDS011;24973;47.178;15.316;2023-11-19T00:14:16;11.10;;;4.17;;
21798;SDS011;24973;47.178;15.316;2023-11-19T00:17:06;6.77;;;2.73;;
21798;SDS011;24973;47.178;15.316;2023-11-19T00:19:55;3.97;;;1.70;;
21798;SDS011;24973;47.178;15.316;2023-11-19T00:22:45;6.13;;;2.43;;
21798;SDS011;24973;47.178;15.316;2023-11-19T00:25:35;5.93;;;2.33;;
21798;SDS011;24973;47.178;15.316;2023-11-19T00:28:25;4.63;;;1.93;;
21798;SDS011;24973;47.178;15.316;2023-11-19T00:31:15;8.47;;;3.27;;
21798;SDS011;24973;47.178;15.316;2023-11-19T00:34:06;5.83;;;2.47;;
21798;SDS011;24973;47.178;15.316;2023-11-19T00:36:55;7.10;;;2.87;;
21798;SDS011;24973;47.178;15.316;2023-11-19T00:39:44;13.03;;;4.77;;
21798;SDS011;24973;47.178;15.316;2023-11-19T00:42:33;3.93;;;1.70;;
21798;SDS011;24973;47.178;15.316;2023-11-19T00:45:22;13.50;;;5.10;;
21798;SDS011;24973;47.178;15.316;2023-11-19T00:48:12;11.60;;;4.37;;
21798;SDS011;24973;47.178;15.316;2023-11-19T00:51:02;7.43;;;2.87;;
21798;SDS011;24973;47.178;15.316;2023-11-19T00:53:52;8.70;;;3.03;;
21798;SDS011;24973;47.178;15.316;2023-11-19T00:56:42;10.70;;;3.67;;
21798;SDS011;24973;47.178;15.316;2023-11-19T00:59:31;7.07;;;2.40;;
21798;SDS011;24973;47.178;15.316;2023-11-19T01:02:20;14.20;;;4.77;;
21798;SDS011;24973;47.178;15.316;2023-11-19T01:05:09;14.10;;;4.73;;
21798;SDS011;24973;47.178;15.316;2023-11-19T01:08:02;12.40;;;3.93;;
21798;SDS011;24973;47.178;15.316;2023-11-19T01:10:52;11.13;;;3.67;;
21798;SDS011;24973;47.178;15.316;2023-11-19T01:13:40;9.10;;;3.17;;
21798;SDS011;24973;47.178;15.316;2023-11-19T01:16:30;5.47;;;1.97;;
21798;SDS011;24973;47.178;15.316;2023-11-19T01:19:19;11.43;;;3.90;;
21798;SDS011;24973;47.178;15.316;2023-11-19T01:22:09;10.13;;;3.40;;
21798;SDS011;24973;47.178;15.316;2023-11-19T01:24:59;9.00;;;3.13;;
21798;SDS011;24973;47.178;15.316;2023-11-19T01:27:49;8.70;;;3.03;;
21798;SDS011;24973;47.178;15.316;2023-11-19T01:30:38;7.87;;;2.57;;
21798;SDS011;24973;47.178;15.316;2023-11-19T01:33:27;6.13;;;2.23;;
21798;SDS011;24973;47.178;15.316;2023-11-19T01:36:16;12.80;;;4.30;;
21798;SDS011;24973;47.178;15.316;2023-11-19T01:39:06;14.73;;;4.73;;
21798;SDS011;24973;47.178;15.316;2023-11-19T01:41:56;6.73;;;2.27;;
21798;SDS011;24973;47.178;15.316;2023-11-19T01:44:54;10.83;;;3.60;;
21798;SDS011;24973;47.178;15.316;2023-11-19T01:47:45;9.03;;;3.10;;
21798;SDS011;24973;47.178;15.316;2023-11-19T01:50:34;8.97;;;3.00;;
21798;SDS011;24973;47.178;15.316;2023-11-19T01:53:23;12.03;;;4.00;;
21798;SDS011;24973;47.178;15.316;2023-11-19T01:56:13;10.63;;;3.53;;
21798;SDS011;24973;47.178;15.316;2023-11-19T01:59:04;9.90;;;3.27;;
21798;SDS011;24973;47.178;15.316;2023-11-19T02:01:54;7.90;;;2.73;;
21798;SDS011;24973;47.178;15.316;2023-11-19T02:04:46;9.90;;;3.23;;
21798;SDS011;24973;47.178;15.316;2023-11-19T02:07:37;7.93;;;2.70;;
21798;SDS011;24973;47.178;15.316;2023-11-19T02:10:26;7.40;;;2.57;;
21798;SDS011;24973;47.178;15.316;2023-11-19T02:13:15;10.67;;;3.43;;
21798;SDS011;24973;47.178;15.316;2023-11-19T02:16:06;8.43;;;2.83;;
21798;SDS011;24973;47.178;15.316;2023-11-19T02:18:56;7.67;;;2.60;;
21798;SDS011;24973;47.178;15.316;2023-11-19T02:21:45;7.30;;;2.60;;
21798;SDS011;24973;47.178;15.316;2023-11-19T02:24:34;7.27;;;2.47;;
21798;SDS011;24973;47.178;15.316;2023-11-19T02:27:25;11.10;;;3.70;;
21798;SDS011;24973;47.178;15.316;2023-11-19T02:30:20;12.87;;;4.20;;
21798;SDS011;24973;47.178;15.316;2023-11-19T02:33:12;12.43;;;3.97;;
21798;SDS011;24973;47.178;15.316;2023-11-19T02:36:03;11.50;;;3.67;;
21798;SDS011;24973;47.178;15.316;2023-11-19T02:38:53;10.70;;;3.57;;
21798;SDS011;24973;47.178;15.316;2023-11-19T02:41:42;6.53;;;2.30;;
21798;SDS011;24973;47.178;15.316;2023-11-19T02:44:31;7.20;;;2.47;;
21798;SDS011;24973;47.178;15.316;2023-11-19T02:47:22;12.67;;;4.17;;
21798;SDS011;24973;47.178;15.316;2023-11-19T02:50:11;12.40;;;4.03;;
21798;SDS011;24973;47.178;15.316;2023-11-19T02:53:01;6.70;;;2.40;;
21798;SDS011;24973;47.178;15.316;2023-11-19T02:55:50;10.77;;;3.43;;
21798;SDS011;24973;47.178;15.316;2023-11-19T02:58:39;6.73;;;2.30;;
21798;SDS011;24973;47.178;15.316;2023-11-19T03:01:31;6.40;;;2.20;;
21798;SDS011;24973;47.178;15.316;2023-11-19T03:04:23;10.80;;;3.63;;
21798;SDS011;24973;47.178;15.316;2023-11-19T03:07:12;10.27;;;3.30;;
21798;SDS011;24973;47.178;15.316;2023-11-19T03:10:01;6.03;;;2.03;;
21798;SDS011;24973;47.178;15.316;2023-11-19T03:12:52;6.40;;;2.23;;
21798;SDS011;24973;47.178;15.316;2023-11-19T03:15:43;8.43;;;2.87;;
21798;SDS011;24973;47.178;15.316;2023-11-19T03:18:32;9.47;;;3.20;;
21798;SDS011;24973;47.178;15.316;2023-11-19T03:21:28;8.87;;;3.03;;
21798;SDS011;24973;47.178;15.316;2023-11-19T03:24:17;9.57;;;3.13;;
21798;SDS011;24973;47.178;15.316;2023-11-19T03:27:07;6.87;;;2.40;;
21798;SDS011;24973;47.178;15.316;2023-11-19T03:29:56;7.43;;;2.60;;
21798;SDS011;24973;47.178;15.316;2023-11-19T03:32:45;6.60;;;2.27;;
21798;SDS011;24973;47.178;15.316;2023-11-19T03:35:34;6.07;;;2.13;;
21798;SDS011;24973;47.178;15.316;2023-11-19T03:38:25;9.10;;;3.17;;
21798;SDS011;24973;47.178;15.316;2023-11-19T03:41:14;13.00;;;4.23;;
21798;SDS011;24973;47.178;15.316;2023-11-19T03:44:04;7.93;;;2.70;;
21798;SDS011;24973;47.178;15.316;2023-11-19T03:46:53;11.60;;;3.80;;
21798;SDS011;24973;47.178;15.316;2023-11-19T03:49:42;15.07;;;4.57;;
21798;SDS011;24973;47.178;15.316;2023-11-19T03:52:35;5.40;;;1.90;;
21798;SDS011;24973;47.178;15.316;2023-11-19T03:55:28;9.37;;;3.10;;
21798;SDS011;24973;47.178;15.316;2023-11-19T03:58:18;11.53;;;3.70;;
21798;SDS011;24973;47.178;15.316;2023-11-19T04:01:10;6.67;;;2.27;;
21798;SDS011;24973;47.178;15.316;2023-11-19T04:04:01;5.50;;;2.10;;
21798;SDS011;24973;47.178;15.316;2023-11-19T04:06:50;7.40;;;2.60;;
21798;SDS011;24973;47.178;15.316;2023-11-19T04:09:39;10.57;;;3.47;;
21798;SDS011;24973;47.178;15.316;2023-11-19T04:12:29;5.90;;;2.20;;
21798;SDS011;24973;47.178;15.316;2023-11-19T04:15:18;10.87;;;3.70;;
21798;SDS011;24973;47.178;15.316;2023-11-19T04:18:07;11.00;;;3.67;;
21798;SDS011;24973;47.178;15.316;2023-11-19T04:20:56;10.03;;;3.33;;
21798;SDS011;24973;47.178;15.316;2023-11-19T04:23:45;7.57;;;2.57;;
21798;SDS011;24973;47.178;15.316;2023-11-19T04:26:34;9.67;;;3.27;;
21798;SDS011;24973;47.178;15.316;2023-11-19T04:29:25;11.30;;;3.77;;
21798;SDS011;24973;47.178;15.316;2023-11-19T04:32:14;11.07;;;3.73;;
21798;SDS011;24973;47.178;15.316;2023-11-19T04:35:03;9.83;;;3.30;;
21798;SDS011;24973;47.178;15.316;2023-11-19T04:37:53;11.67;;;3.73;;
21798;SDS011;24973;47.178;15.316;2023-11-19T04:40:44;8.00;;;2.67;;
21798;SDS011;24973;47.178;15.316;2023-11-19T04:43:33;8.13;;;2.70;;
21798;SDS011;24973;47.178;15.316;2023-11-19T04:46:24;10.50;;;3.60;;
21798;SDS011;24973;47.178;15.316;2023-11-19T04:49:13;6.80;;;2.40;;
21798;SDS011;24973;47.178;15.316;2023-11-19T04:52:03;8.67;;;2.80;;
21798;SDS011;24973;47.178;15.316;2023-11-19T04:54:52;9.00;;;2.93;;
21798;SDS011;24973;47.178;15.316;2023-11-19T04:57:41;10.53;;;3.47;;
21798;SDS011;24973;47.178;15.316;2023-11-19T05:00:30;8.03;;;2.60;;
21798;SDS011;24973;47.178;15.316;2023-11-19T05:03:21;10.27;;;3.40;;
21798;SDS011;24973;47.178;15.316;2023-11-19T05:06:10;12.13;;;3.87;;
21798;SDS011;24973;47.178;15.316;2023-11-19T05:08:59;7.47;;;2.43;;
21798;SDS011;24973;47.178;15.316;2023-11-19T05:11:51;9.90;;;3.20;;
21798;SDS011;24973;47.178;15.316;2023-11-19T05:14:41;8.67;;;2.83;;
21798;SDS011;24973;47.178;15.316;2023-11-19T05:17:36;7.77;;;2.73;;
21798;SDS011;24973;47.178;15.316;2023-11-19T05:20:27;11.47;;;3.80;;
21798;SDS011;24973;47.178;15.316;2023-11-19T05:23:16;14.67;;;4.77;;
21798;SDS011;24973;47.178;15.316;2023-11-19T05:26:07;10.13;;;3.40;;
21798;SDS011;24973;47.178;15.316;2023-11-19T05:28:56;9.50;;;3.10;;
21798;SDS011;24973;47.178;15.316;2023-11-19T05:31:45;9.50;;;3.10;;
21798;SDS011;24973;47.178;15.316;2023-11-19T05:34:35;8.00;;;2.83;;
21798;SDS011;24973;47.178;15.316;2023-11-19T05:37:38;6.30;;;2.20;;
21798;SDS011;24973;47.178;15.316;2023-11-19T05:40:27;8.40;;;2.80;;
21798;SDS011;24973;47.178;15.316;2023-11-19T05:43:16;12.00;;;4.00;;
21798;SDS011;24973;47.178;15.316;2023-11-19T05:46:05;15.17;;;4.87;;
21798;SDS011;24973;47.178;15.316;2023-11-19T05:48:58;7.83;;;2.70;;
21798;SDS011;24973;47.178;15.316;2023-11-19T05:51:47;9.70;;;3.17;;
21798;SDS011;24973;47.178;15.316;2023-11-19T05:54:38;8.10;;;2.73;;
21798;SDS011;24973;47.178;15.316;2023-11-19T05:57:27;10.23;;;3.47;;
21798;SDS011;24973;47.178;15.316;2023-11-19T06:00:16;9.53;;;3.13;;
21798;SDS011;24973;47.178;15.316;2023-11-19T06:03:05;8.03;;;2.67;;
21798;SDS011;24973;47.178;15.316;2023-11-19T06:05:54;13.83;;;4.37;;
21798;SDS011;24973;47.178;15.316;2023-11-19T06:08:43;8.57;;;2.90;;
21798;SDS011;24973;47.178;15.316;2023-11-19T06:11:34;6.00;;;2.13;;
21798;SDS011;24973;47.178;15.316;2023-11-19T06:14:23;13.03;;;4.20;;
21798;SDS011;24973;47.178;15.316;2023-11-19T06:17:12;14.17;;;4.47;;
21798;SDS011;24973;47.178;15.316;2023-11-19T06:20:02;7.77;;;2.63;;
21798;SDS011;24973;47.178;15.316;2023-11-19T06:22:52;8.03;;;2.73;;
21798;SDS011;24973;47.178;15.316;2023-11-19T06:25:41;8.97;;;2.97;;
21798;SDS011;24973;47.178;15.316;2023-11-19T06:28:31;7.40;;;2.70;;
21798;SDS011;24973;47.178;15.316;2023-11-19T06:31:20;14.10;;;4.63;;
21798;SDS011;24973;47.178;15.316;2023-11-19T06:34:09;7.73;;;2.67;;
21798;SDS011;24973;47.178;15.316;2023-11-19T06:36:58;5.40;;;2.03;;
21798;SDS011;24973;47.178;15.316;2023-11-19T06:39:49;18.37;;;5.67;;
21798;SDS011;24973;47.178;15.316;2023-11-19T06:42:38;9.33;;;3.20;;
21798;SDS011;24973;47.178;15.316;2023-11-19T06:45:29;11.93;;;4.00;;
21798;SDS011;24973;47.178;15.316;2023-11-19T06:48:18;12.57;;;4.17;;
21798;SDS011;24973;47.178;15.316;2023-11-19T06:51:07;7.47;;;2.63;;
21798;SDS011;24973;47.178;15.316;2023-11-19T06:53:56;7.97;;;2.80;;
21798;SDS011;24973;47.178;15.316;2023-11-19T06:56:46;7.17;;;2.53;;
21798;SDS011;24973;47.178;15.316;2023-11-19T06:59:35;7.30;;;2.43;;
21798;SDS011;24973;47.178;15.316;2023-11-19T07:02:25;13.07;;;4.23;;
21798;SDS011;24973;47.178;15.316;2023-11-19T07:05:14;11.83;;;3.77;;
21798;SDS011;24973;47.178;15.316;2023-11-19T07:08:03;11.03;;;3.60;;
21798;SDS011;24973;47.178;15.316;2023-11-19T07:10:53;11.87;;;3.83;;
21798;SDS011;24973;47.178;15.316;2023-11-19T07:13:42;8.20;;;2.70;;
21798;SDS011;24973;47.178;15.316;2023-11-19T07:16:33;19.53;;;6.13;;
21798;SDS011;24973;47.178;15.316;2023-11-19T07:19:25;15.57;;;5.10;;
21798;SDS011;24973;47.178;15.316;2023-11-19T07:22:14;14.47;;;4.43;;
21798;SDS011;24973;47.178;15.316;2023-11-19T07:25:04;10.40;;;3.53;;
21798;SDS011;24973;47.178;15.316;2023-11-19T07:27:53;14.30;;;4.53;;
21798;SDS011;24973;47.178;15.316;2023-11-19T07:30:43;11.07;;;3.57;;
21798;SDS011;24973;47.178;15.316;2023-11-19T07:33:32;9.93;;;3.20;;
21798;SDS011;24973;47.178;15.316;2023-11-19T07:36:22;15.40;;;4.87;;
21798;SDS011;24973;47.178;15.316;2023-11-19T07:39:11;10.77;;;3.33;;
21798;SDS011;24973;47.178;15.316;2023-11-19T07:42:00;10.37;;;3.27;;
21798;SDS011;24973;47.178;15.316;2023-11-19T07:44:49;12.60;;;4.00;;
21798;SDS011;24973;47.178;15.316;2023-11-19T07:47:38;10.73;;;3.40;;
21798;SDS011;24973;47.178;15.316;2023-11-19T07:50:27;15.73;;;4.90;;
21798;SDS011;24973;47.178;15.316;2023-11-19T07:53:19;22.43;;;6.83;;
21798;SDS011;24973;47.178;15.316;2023-11-19T07:56:09;9.80;;;3.30;;
21798;SDS011;24973;47.178;15.316;2023-11-19T07:58:58;12.53;;;4.03;;
21798;SDS011;24973;47.178;15.316;2023-11-19T08:01:47;10.77;;;3.60;;
21798;SDS011;24973;47.178;15.316;2023-11-19T08:04:36;8.50;;;2.83;;
21798;SDS011;24973;47.178;15.316;2023-11-19T08:07:31;8.67;;;2.87;;
21798;SDS011;24973;47.178;15.316;2023-11-19T08:10:22;14.37;;;4.47;;
21798;SDS011;24973;47.178;15.316;2023-11-19T08:13:11;9.83;;;3.13;;
21798;SDS011;24973;47.178;15.316;2023-11-19T08:16:00;9.03;;;2.93;;
21798;SDS011;24973;47.178;15.316;2023-11-19T08:18:49;8.97;;;2.93;;
21798;SDS011;24973;47.178;15.316;2023-11-19T08:21:38;18.17;;;5.57;;
21798;SDS011;24973;47.178;15.316;2023-11-19T08:24:27;21.93;;;6.77;;
21798;SDS011;24973;47.178;15.316;2023-11-19T08:27:18;23.77;;;7.23;;
21798;SDS011;24973;47.178;15.316;2023-11-19T08:30:13;15.40;;;4.73;;
21798;SDS011;24973;47.178;15.316;2023-11-19T08:33:02;15.50;;;4.87;;
21798;SDS011;24973;47.178;15.316;2023-11-19T08:35:53;24.17;;;7.37;;
21798;SDS011;24973;47.178;15.316;2023-11-19T08:38:42;20.13;;;6.17;;
21798;SDS011;24973;47.178;15.316;2023-11-19T08:41:32;12.83;;;4.03;;
21798;SDS011;24973;47.178;15.316;2023-11-19T08:44:23;29.20;;;8.77;;
21798;SDS011;24973;47.178;15.316;2023-11-19T08:47:12;17.30;;;5.23;;
21798;SDS011;24973;47.178;15.316;2023-11-19T08:50:03;13.33;;;4.20;;
21798;SDS011;24973;47.178;15.316;2023-11-19T08:52:52;21.57;;;6.60;;
21798;SDS011;24973;47.178;15.316;2023-11-19T08:55:41;21.50;;;6.37;;
21798;SDS011;24973;47.178;15.316;2023-11-19T08:58:30;14.87;;;4.70;;
21798;SDS011;24973;47.178;15.316;2023-11-19T09:01:21;21.57;;;6.47;;
21798;SDS011;24973;47.178;15.316;2023-11-19T09:04:11;47.00;;;13.93;;
21798;SDS011;24973;47.178;15.316;2023-11-19T09:07:00;13.63;;;4.33;;
21798;SDS011;24973;47.178;15.316;2023-11-19T09:09:50;25.57;;;7.60;;
21798;SDS011;24973;47.178;15.316;2023-11-19T09:12:39;16.80;;;5.33;;
21798;SDS011;24973;47.178;15.316;2023-11-19T09:15:28;18.73;;;5.87;;
21798;SDS011;24973;47.178;15.316;2023-11-19T09:18:18;18.97;;;5.97;;
21798;SDS011;24973;47.178;15.316;2023-11-19T09:21:07;15.90;;;4.80;;
21798;SDS011;24973;47.178;15.316;2023-11-19T09:23:58;15.90;;;4.83;;
21798;SDS011;24973;47.178;15.316;2023-11-19T09:26:47;14.13;;;4.30;;
21798;SDS011;24973;47.178;15.316;2023-11-19T09:29:36;18.67;;;5.70;;
21798;SDS011;24973;47.178;15.316;2023-11-19T09:32:25;21.67;;;6.77;;
21798;SDS011;24973;47.178;15.316;2023-11-19T09:35:16;28.17;;;8.50;;
21798;SDS011;24973;47.178;15.316;2023-11-19T09:38:05;18.07;;;5.57;;
21798;SDS011;24973;47.178;15.316;2023-11-19T09:40:54;23.43;;;7.20;;
21798;SDS011;24973;47.178;15.316;2023-11-19T09:43:44;11.10;;;3.57;;
21798;SDS011;24973;47.178;15.316;2023-11-19T09:46:33;14.23;;;4.50;;
21798;SDS011;24973;47.178;15.316;2023-11-19T09:49:23;20.30;;;6.20;;
21798;SDS011;24973;47.178;15.316;2023-11-19T09:52:19;29.30;;;8.80;;
21798;SDS011;24973;47.178;15.316;2023-11-19T09:55:08;13.00;;;4.13;;
21798;SDS011;24973;47.178;15.316;2023-11-19T09:57:57;18.57;;;5.80;;
21798;SDS011;24973;47.178;15.316;2023-11-19T10:00:47;17.37;;;5.37;;
21798;SDS011;24973;47.178;15.316;2023-11-19T10:03:41;10.20;;;3.30;;
21798;SDS011;24973;47.178;15.316;2023-11-19T10:06:30;23.70;;;7.30;;
21798;SDS011;24973;47.178;15.316;2023-11-19T10:09:21;18.13;;;5.80;;
21798;SDS011;24973;47.178;15.316;2023-11-19T10:12:10;11.90;;;3.93;;
21798;SDS011;24973;47.178;15.316;2023-11-19T10:14:59;9.97;;;3.57;;
21798;SDS011;24973;47.178;15.316;2023-11-19T10:17:49;9.23;;;3.50;;
21798;SDS011;24973;47.178;15.316;2023-11-19T10:20:40;15.83;;;5.50;;
21798;SDS011;24973;47.178;15.316;2023-11-19T10:23:30;25.03;;;8.03;;
21798;SDS011;24973;47.178;15.316;2023-11-19T10:26:21;18.70;;;6.17;;
21798;SDS011;24973;47.178;15.316;2023-11-19T10:29:12;11.13;;;4.80;;
21798;SDS011;24973;47.178;15.316;2023-11-19T10:32:02;11.60;;;5.90;;
21798;SDS011;24973;47.178;15.316;2023-11-19T10:34:51;20.50;;;8.80;;
21798;SDS011;24973;47.178;15.316;2023-11-19T10:37:41;13.67;;;7.00;;
21798;SDS011;24973;47.178;15.316;2023-11-19T10:40:39;14.87;;;6.20;;
21798;SDS011;24973;47.178;15.316;2023-11-19T10:43:30;24.50;;;8.93;;
21798;SDS011;24973;47.178;15.316;2023-11-19T10:46:19;13.60;;;5.07;;
21798;SDS011;24973;47.178;15.316;2023-11-19T10:49:10;11.10;;;5.73;;
21798;SDS011;24973;47.178;15.316;2023-11-19T10:51:59;16.60;;;9.97;;
21798;SDS011;24973;47.178;15.316;2023-11-19T10:54:49;22.17;;;12.30;;
21798;SDS011;24973;47.178;15.316;2023-11-19T10:57:39;12.70;;;6.07;;
21798;SDS011;24973;47.178;15.316;2023-11-19T11:00:34;19.27;;;7.33;;
21798;SDS011;24973;47.178;15.316;2023-11-19T11:03:29;21.63;;;8.10;;
21798;SDS011;24973;47.178;15.316;2023-11-19T11:06:23;25.93;;;13.00;;
21798;SDS011;24973;47.178;15.316;2023-11-19T11:09:12;14.40;;;10.13;;
21798;SDS011;24973;47.178;15.316;2023-11-19T11:12:02;12.23;;;7.73;;
21798;SDS011;24973;47.178;15.316;2023-11-19T11:14:53;20.47;;;15.13;;
21798;SDS011;24973;47.178;15.316;2023-11-19T11:17:43;15.60;;;10.80;;
21798;SDS011;24973;47.178;15.316;2023-11-19T11:20:33;20.57;;;18.37;;
21798;SDS011;24973;47.178;15.316;2023-11-19T11:23:42;26.00;;;18.80;;
21798;SDS011;24973;47.178;15.316;2023-11-19T11:27:17;23.33;;;21.43;;
21798;SDS011;24973;47.178;15.316;2023-11-19T11:30:31;51.57;;;47.50;;
21798;SDS011;24973;47.178;15.316;2023-11-19T11:33:32;113.73;;;106.83;;
21798;SDS011;24973;47.178;15.316;2023-11-19T11:36:29;121.77;;;114.53;;
21798;SDS011;24973;47.178;15.316;2023-11-19T11:39:22;159.00;;;149.27;;
21798;SDS011;24973;47.178;15.316;2023-11-19T11:45:20;90.67;;;84.70;;
21798;SDS011;24973;47.178;15.316;2023-11-19T11:48:24;118.53;;;111.07;;
21798;SDS011;24973;47.178;15.316;2023-11-19T11:51:17;148.70;;;140.07;;
21798;SDS011;24973;47.178;15.316;2023-11-19T11:54:07;114.00;;;108.50;;
21798;SDS011;24973;47.178;15.316;2023-11-19T11:57:03;163.10;;;154.37;;
21798;SDS011;24973;47.178;15.316;2023-11-19T11:59:58;211.87;;;199.67;;
21798;SDS011;24973;47.178;15.316;2023-11-19T12:02:53;238.60;;;224.17;;
21798;SDS011;24973;47.178;15.316;2023-11-19T12:05:44;267.00;;;250.63;;
21798;SDS011;24973;47.178;15.316;2023-11-19T12:08:35;283.63;;;265.53;;
21798;SDS011;24973;47.178;15.316;2023-11-19T12:11:28;354.50;;;323.03;;
21798;SDS011;24973;47.178;15.316;2023-11-19T12:14:19;367.43;;;335.50;;
21798;SDS011;24973;47.178;15.316;2023-11-19T12:17:47;359.13;;;330.10;;
21798;SDS011;24973;47.178;15.316;2023-11-19T12:20:37;356.17;;;333.40;;
21798;SDS011;24973;47.178;15.316;2023-11-19T12:23:27;386.77;;;360.27;;
21798;SDS011;24973;47.178;15.316;2023-11-19T12:26:37;395.03;;;368.10;;
21798;SDS011;24973;47.178;15.316;2023-11-19T12:29:27;371.87;;;346.30;;
21798;SDS011;24973;47.178;15.316;2023-11-19T12:32:37;375.63;;;351.93;;
21798;SDS011;24973;47.178;15.316;2023-11-19T12:35:27;405.07;;;375.67;;
21798;SDS011;24973;47.178;15.316;2023-11-19T12:38:19;431.77;;;397.90;;
21798;SDS011;24973;47.178;15.316;2023-11-19T12:41:09;430.27;;;389.43;;
21798;SDS011;24973;47.178;15.316;2023-11-19T12:44:10;430.97;;;396.87;;
21798;SDS011;24973;47.178;15.316;2023-11-19T12:47:00;450.90;;;411.23;;
21798;SDS011;24973;47.178;15.316;2023-11-19T12:49:55;474.93;;;428.63;;
21798;SDS011;24973;47.178;15.316;2023-11-19T12:52:54;437.97;;;410.07;;
21798;SDS011;24973;47.178;15.316;2023-11-19T12:55:44;467.50;;;436.20;;
21798;SDS011;24973;47.178;15.316;2023-11-19T12:58:33;500.27;;;465.07;;
21798;SDS011;24973;47.178;15.316;2023-11-19T13:01:26;519.00;;;481.10;;
21798;SDS011;24973;47.178;15.316;2023-11-19T13:04:15;548.17;;;505.37;;
21798;SDS011;24973;47.178;15.316;2023-11-19T13:07:05;540.70;;;499.93;;
21798;SDS011;24973;47.178;15.316;2023-11-19T13:10:00;561.03;;;518.23;;
21798;SDS011;24973;47.178;15.316;2023-11-19T13:12:59;553.00;;;511.53;;
21798;SDS011;24973;47.178;15.316;2023-11-19T13:15:52;562.70;;;520.37;;
21798;SDS011;24973;47.178;15.316;2023-11-19T13:18:42;571.03;;;529.40;;
21798;SDS011;24973;47.178;15.316;2023-11-19T13:21:31;569.70;;;529.20;;
21798;SDS011;24973;47.178;15.316;2023-11-19T13:24:20;555.80;;;517.53;;
21798;SDS011;24973;47.178;15.316;2023-11-19T13:27:09;537.73;;;502.00;;
21798;SDS011;24973;47.178;15.316;2023-11-19T13:29:59;528.47;;;494.47;;
21798;SDS011;24973;47.178;15.316;2023-11-19T13:32:48;519.77;;;485.77;;
21798;SDS011;24973;47.178;15.316;2023-11-19T13:35:38;509.03;;;476.30;;
21798;SDS011;24973;47.178;15.316;2023-11-19T13:38:27;510.80;;;478.37;;
21798;SDS011;24973;47.178;15.316;2023-11-19T13:41:16;499.03;;;467.23;;
21798;SDS011;24973;47.178;15.316;2023-11-19T13:44:06;513.57;;;480.77;;
21798;SDS011;24973;47.178;15.316;2023-11-19T13:46:55;514.17;;;480.63;;
21798;SDS011;24973;47.178;15.316;2023-11-19T13:49:44;542.17;;;506.37;;
21798;SDS011;24973;47.178;15.316;2023-11-19T13:52:35;548.60;;;511.47;;
21798;SDS011;24973;47.178;15.316;2023-11-19T13:55:25;561.47;;;523.97;;
21798;SDS011;24973;47.178;15.316;2023-11-19T13:58:14;546.20;;;511.07;;
21798;SDS011;24973;47.178;15.316;2023-11-19T14:01:04;540.63;;;506.43;;
21798;SDS011;24973;47.178;15.316;2023-11-19T14:03:53;522.80;;;490.67;;
21798;SDS011;24973;47.178;15.316;2023-11-19T14:06:44;531.90;;;499.63;;
21798;SDS011;24973;47.178;15.316;2023-11-19T14:09:35;519.23;;;487.00;;
21798;SDS011;24973;47.178;15.316;2023-11-19T14:12:24;512.13;;;480.83;;
21798;SDS011;24973;47.178;15.316;2023-11-19T14:15:13;488.47;;;460.53;;
21798;SDS011;24973;47.178;15.316;2023-11-19T14:18:04;447.30;;;422.43;;
21798;SDS011;24973;47.178;15.316;2023-11-19T14:20:53;394.97;;;374.10;;
21798;SDS011;24973;47.178;15.316;2023-11-19T14:23:42;358.90;;;340.60;;
21798;SDS011;24973;47.178;15.316;2023-11-19T14:26:33;296.30;;;281.03;;
21798;SDS011;24973;47.178;15.316;2023-11-19T14:29:22;277.67;;;262.93;;
21798;SDS011;24973;47.178;15.316;2023-11-19T14:32:12;250.47;;;238.10;;
21798;SDS011;24973;47.178;15.316;2023-11-19T14:35:01;188.73;;;179.77;;
21798;SDS011;24973;47.178;15.316;2023-11-19T14:37:51;146.67;;;139.70;;
21798;SDS011;24973;47.178;15.316;2023-11-19T14:40:40;99.67;;;95.50;;
21798;SDS011;24973;47.178;15.316;2023-11-19T14:43:31;80.80;;;76.30;;
21798;SDS011;24973;47.178;15.316;2023-11-19T14:46:20;53.90;;;50.13;;
21798;SDS011;24973;47.178;15.316;2023-11-19T14:49:09;29.30;;;26.97;;
21798;SDS011;24973;47.178;15.316;2023-11-19T14:51:58;20.80;;;19.03;;
21798;SDS011;24973;47.178;15.316;2023-11-19T14:54:50;24.40;;;21.80;;
21798;SDS011;24973;47.178;15.316;2023-11-19T14:57:40;15.60;;;14.00;;
21798;SDS011;24973;47.178;15.316;2023-11-19T15:00:34;23.00;;;14.60;;
21798;SDS011;24973;47.178;15.316;2023-11-19T15:03:23;20.47;;;10.23;;
21798;SDS011;24973;47.178;15.316;2023-11-19T15:06:12;11.77;;;6.93;;
21798;SDS011;24973;47.178;15.316;2023-11-19T15:09:02;10.40;;;5.40;;
21798;SDS011;24973;47.178;15.316;2023-11-19T15:11:53;13.20;;;5.80;;
21798;SDS011;24973;47.178;15.316;2023-11-19T15:14:42;11.50;;;4.83;;
21798;SDS011;24973;47.178;15.316;2023-11-19T15:17:32;18.30;;;6.80;;
21798;SDS011;24973;47.178;15.316;2023-11-19T15:20:22;21.13;;;7.53;;
21798;SDS011;24973;47.178;15.316;2023-11-19T15:23:11;10.97;;;4.30;;
21798;SDS011;24973;47.178;15.316;2023-11-19T15:26:00;12.83;;;4.67;;
21798;SDS011;24973;47.178;15.316;2023-11-19T15:28:50;13.43;;;5.03;;
21798;SDS011;24973;47.178;15.316;2023-11-19T15:31:42;14.00;;;5.33;;
21798;SDS011;24973;47.178;15.316;2023-11-19T15:34:33;16.50;;;6.00;;
21798;SDS011;24973;47.178;15.316;2023-11-19T15:37:24;19.07;;;6.60;;
21798;SDS011;24973;47.178;15.316;2023-11-19T15:40:13;9.57;;;3.80;;
21798;SDS011;24973;47.178;15.316;2023-11-19T15:43:02;8.90;;;3.80;;
21798;SDS011;24973;47.178;15.316;2023-11-19T15:45:53;15.13;;;5.57;;
21798;SDS011;24973;47.178;15.316;2023-11-19T15:48:42;11.37;;;4.27;;
21798;SDS011;24973;47.178;15.316;2023-11-19T15:51:32;17.87;;;6.30;;
21798;SDS011;24973;47.178;15.316;2023-11-19T15:54:21;19.00;;;6.73;;
21798;SDS011;24973;47.178;15.316;2023-11-19T15:57:10;10.40;;;4.07;;
21798;SDS011;24973;47.178;15.316;2023-11-19T16:00:00;13.43;;;4.87;;
21798;SDS011;24973;47.178;15.316;2023-11-19T16:02:50;10.10;;;3.90;;
21798;SDS011;24973;47.178;15.316;2023-11-19T16:05:40;7.87;;;3.37;;
21798;SDS011;24973;47.178;15.316;2023-11-19T16:08:30;17.30;;;6.37;;
21798;SDS011;24973;47.178;15.316;2023-11-19T16:11:20;12.60;;;4.87;;
21798;SDS011;24973;47.178;15.316;2023-11-19T16:14:10;10.47;;;4.67;;
21798;SDS011;24973;47.178;15.316;2023-11-19T16:16:59;8.57;;;3.47;;
21798;SDS011;24973;47.178;15.316;2023-11-19T16:19:48;13.27;;;5.07;;
21798;SDS011;24973;47.178;15.316;2023-11-19T16:22:37;8.93;;;3.33;;
21798;SDS011;24973;47.178;15.316;2023-11-19T16:25:30;19.67;;;6.83;;
21798;SDS011;24973;47.178;15.316;2023-11-19T16:28:19;8.23;;;3.47;;
21798;SDS011;24973;47.178;15.316;2023-11-19T16:31:10;8.83;;;3.33;;
21798;SDS011;24973;47.178;15.316;2023-11-19T16:34:00;10.93;;;4.23;;
21798;SDS011;24973;47.178;15.316;2023-11-19T16:36:49;10.90;;;3.97;;